City Of Cleveland — WDC2358 — position and weather

sailwx.info

Track history (hours):
 
Tides and Currents Weather Stations Pressure Air Temp Water Temp Dewpoint Dewpoint Depression Visibility Wind Speed Wind Dir Waves Ship Positions

City Of Cleveland

Owner: JANTRAN, INC., ROSEDALE, MS. More information available from US FCC via Universal Licensing System and Coast Guard Vessel Documentation Center.

Last reported at 2017-Jul-09 17:20 UTC. Time now 2017-Jul-21 00:53 UTC.
Position N 32°40' W 091°07'.
Warning: this ship's position is 11 days out of date.

Length 42 m; draft 12.5 m.

Type: Towing. MMSI: 366991810.

Date/timePositionNaut miles runAvg speedWind from/ knotsBaromVisibWave heightAir tempDewpointWater temp
2017-Jul-09 17:20N 32°40' W 091°07'3 2.8
2017-Jul-09 16:05N 32°37' W 091°09'0 4.2
2017-Jul-09 16:00N 32°37' W 091°09'2 4.1
2017-Jul-09 15:30N 32°35' W 091°07'2 3.8
2017-Jul-09 14:59N 32°34' W 091°06'2 3.7
2017-Jul-09 14:30N 32°32' W 091°06'2 4.4
2017-Jul-09 14:00N 32°30' W 091°07'2 4.0
2017-Jul-09 13:30N 32°28' W 091°06'2 4.2
2017-Jul-09 13:00N 32°27' W 091°04'2 4.2
2017-Jul-09 12:30N 32°26' W 091°01'2 3.9
2017-Jul-09 12:00N 32°25' W 090°60'2 3.6
2017-Jul-09 11:30N 32°23' W 090°60'2 3.6
2017-Jul-09 11:00N 32°21' W 090°60'2 3.6
2017-Jul-09 10:30N 32°21' W 090°57'1 1.1
2017-Jul-09 10:00N 32°21' W 090°57'2 3.2
2017-Jul-09 09:30N 32°21' W 090°55'2 3.3
2017-Jul-09 09:00N 32°19' W 090°54'2 3.9
2017-Jul-09 08:30N 32°18' W 090°56'2 4.3
2017-Jul-09 08:00N 32°16' W 090°58'2 3.8
2017-Jul-09 07:30N 32°15' W 090°59'1 2.3
2017-Jul-09 07:00N 32°14' W 090°59'2 4.4
2017-Jul-09 06:30N 32°11' W 090°60'2 3.9
2017-Jul-09 06:00N 32°09' W 090°60'2 4.2
2017-Jul-09 05:30N 32°08' W 091°01'2 3.5
2017-Jul-09 05:00N 32°07' W 091°03'2 4.3
2017-Jul-09 04:30N 32°08' W 091°05'2 3.4
2017-Jul-09 04:00N 32°06' W 091°06'3 4.8
2017-Jul-09 03:29N 32°05' W 091°04'2 4.1
2017-Jul-09 03:00N 32°03' W 091°04'2 4.6
2017-Jul-09 02:30N 32°01' W 091°05'5 4.2
2017-Jul-09 01:16N 31°59' W 091°10'1 3.9
2017-Jul-09 01:00N 31°58' W 091°11'  
Track history (hours):
 
Tides and Currents Weather Stations Pressure Air Temp Water Temp Dewpoint Dewpoint Depression Visibility Wind Speed Wind Dir Waves Ship Positions

City Of Cleveland

Owner: JANTRAN, INC., ROSEDALE, MS. More information available from US FCC via Universal Licensing System and Coast Guard Vessel Documentation Center.

Last reported at 2017-Jul-09 17:20 UTC. Time now 2017-Jul-21 00:53 UTC.
Position N 32°40' W 091°07'.
Warning: this ship's position is 11 days out of date.

Length 42 m; draft 12.5 m.

Type: Towing. MMSI: 366991810.

Date/timePositionNaut miles runAvg speedWind from/ knotsBaromVisibWave heightAir tempDewpointWater temp
2017-Jul-09 17:20N 32°40' W 091°07'3 2.8
2017-Jul-09 16:05N 32°37' W 091°09'0 4.2
2017-Jul-09 16:00N 32°37' W 091°09'2 4.1
2017-Jul-09 15:30N 32°35' W 091°07'2 3.8
2017-Jul-09 14:59N 32°34' W 091°06'2 3.7
2017-Jul-09 14:30N 32°32' W 091°06'2 4.4
2017-Jul-09 14:00N 32°30' W 091°07'2 4.0
2017-Jul-09 13:30N 32°28' W 091°06'2 4.2
2017-Jul-09 13:00N 32°27' W 091°04'2 4.2
2017-Jul-09 12:30N 32°26' W 091°01'2 3.9
2017-Jul-09 12:00N 32°25' W 090°60'2 3.6
2017-Jul-09 11:30N 32°23' W 090°60'2 3.6
2017-Jul-09 11:00N 32°21' W 090°60'2 3.6
2017-Jul-09 10:30N 32°21' W 090°57'1 1.1
2017-Jul-09 10:00N 32°21' W 090°57'2 3.2
2017-Jul-09 09:30N 32°21' W 090°55'2 3.3
2017-Jul-09 09:00N 32°19' W 090°54'2 3.9
2017-Jul-09 08:30N 32°18' W 090°56'2 4.3
2017-Jul-09 08:00N 32°16' W 090°58'2 3.8
2017-Jul-09 07:30N 32°15' W 090°59'1 2.3
2017-Jul-09 07:00N 32°14' W 090°59'2 4.4
2017-Jul-09 06:30N 32°11' W 090°60'2 3.9
2017-Jul-09 06:00N 32°09' W 090°60'2 4.2
2017-Jul-09 05:30N 32°08' W 091°01'2 3.5
2017-Jul-09 05:00N 32°07' W 091°03'2 4.3
2017-Jul-09 04:30N 32°08' W 091°05'2 3.4
2017-Jul-09 04:00N 32°06' W 091°06'3 4.8
2017-Jul-09 03:29N 32°05' W 091°04'2 4.1
2017-Jul-09 03:00N 32°03' W 091°04'2 4.6
2017-Jul-09 02:30N 32°01' W 091°05'5 4.2
2017-Jul-09 01:16N 31°59' W 091°10'1 3.9
2017-Jul-09 01:00N 31°58' W 091°11'  

Dump ship's entire track history